createdAt,value
2023-03-22T00:01:02.535Z,21.10
2023-03-22T00:05:36.214Z,20.90
2023-03-22T00:10:08.336Z,21.60
2023-03-22T00:14:42.011Z,21.70
2023-03-22T00:36:33.473Z,21.70
2023-03-22T00:40:54.992Z,19.60
2023-03-22T00:45:25.396Z,20.50
2023-03-22T00:49:58.005Z,20.20
2023-03-22T01:11:55.995Z,24.60
2023-03-22T01:42:09.394Z,21.70
2023-03-22T01:46:42.627Z,21.60
2023-03-22T01:50:58.433Z,21.40
2023-03-22T01:55:41.219Z,21.50
2023-03-22T02:22:30.900Z,23.40
2023-03-22T02:27:13.775Z,22.30
2023-03-22T02:31:43.038Z,21.30
2023-03-22T02:36:08.737Z,21.80
2023-03-22T02:40:46.957Z,20.70
2023-03-22T03:11:55.210Z,23.00
2023-03-22T03:16:19.959Z,21.50
2023-03-22T03:21:13.490Z,22.70
2023-03-22T03:43:59.891Z,25.50
2023-03-22T03:48:31.287Z,22.80
2023-03-22T04:20:54.023Z,27.50
2023-03-22T04:25:22.893Z,26.00
2023-03-22T04:29:51.810Z,25.00
2023-03-22T04:39:04.729Z,24.00
2023-03-22T05:07:16.050Z,22.40
2023-03-22T05:11:44.891Z,18.90
2023-03-22T05:16:19.782Z,20.30
2023-03-22T05:41:54.007Z,24.00
2023-03-22T05:46:16.151Z,22.20
2023-03-22T05:50:48.798Z,23.80
2023-03-22T06:16:31.292Z,25.70
2023-03-22T06:20:53.070Z,22.90
2023-03-22T06:24:43.033Z,25.40
2023-03-22T06:29:01.387Z,24.00
2023-03-22T06:33:30.105Z,24.90
2023-03-22T06:38:00.646Z,23.80
2023-03-22T06:42:20.424Z,24.70
2023-03-22T06:46:43.023Z,24.90
2023-03-22T07:15:46.904Z,24.00
2023-03-22T07:20:14.909Z,23.70
2023-03-22T07:24:55.671Z,22.70
2023-03-22T07:29:14.946Z,23.40
2023-03-22T07:33:44.089Z,21.20
2023-03-22T07:38:12.840Z,21.10
2023-03-22T07:42:34.367Z,21.60
2023-03-22T08:03:54.177Z,19.90
2023-03-22T08:08:23.391Z,19.80
2023-03-22T08:11:38.106Z,18.20
2023-03-22T08:15:40.642Z,17.40
2023-03-22T08:19:46.594Z,16.90
2023-03-22T08:23:16.655Z,17.00
2023-03-22T08:27:21.294Z,18.70
2023-03-22T08:30:48.719Z,18.20
2023-03-22T08:34:28.301Z,16.30
2023-03-22T08:37:36.616Z,17.50
2023-03-22T08:41:30.186Z,16.30
2023-03-22T08:44:34.641Z,16.60
2023-03-22T08:47:32.070Z,16.10
2023-03-22T08:50:37.988Z,15.20
2023-03-22T08:53:59.807Z,15.90
2023-03-22T08:58:31.947Z,16.60
2023-03-22T09:02:46.940Z,15.50
2023-03-22T09:25:02.483Z,14.60
2023-03-22T09:29:25.074Z,14.80
2023-03-22T09:33:54.000Z,14.10
2023-03-22T09:38:23.104Z,13.40
2023-03-22T09:42:48.662Z,13.00
2023-03-22T12:30:07.854Z,9.10
2023-03-22T12:34:25.325Z,9.80
2023-03-22T12:38:56.964Z,7.70
2023-03-22T12:43:29.172Z,8.90
2023-03-22T12:47:50.616Z,8.10
2023-03-22T12:56:20.866Z,7.90
2023-03-22T13:27:17.782Z,8.90
2023-03-22T13:31:25.238Z,9.20
2023-03-22T13:35:16.990Z,8.90
2023-03-22T13:39:35.032Z,7.90
